Flight Track Log - Related Links

Times and Time Zones

All times are in EDT time to prevent confusion due to time zone crossing. See the N960DL flight status page for this flight to view local times or setup timezone preferences in your user account.

Time Position Orientation Groundspeed Altitude Reporting Facility
EDT Latitude Longitude Course Direction KTS MPH feet Rate Location/Type
Mon 12:11:45 PM 33.6333 -84.4833 145° Southeast 179 206 2,800  Level Atlanta TRACON
Mon 12:12:39 PM 33.6167 -84.5333 248° West 236 272 4,600 2,262 Climbing Atlanta TRACON
Mon 12:13:00 PM 33.3798 -84.2631 140° Southeast  Level FlightAware Approximate
Mon 12:14:00 PM 33.2889 -84.1720 140° Southeast  Level FlightAware Approximate
Mon 12:14:56 PM 33.4861 -84.5794 196° South 259 298 10,000  Level Atlanta Center
Mon 12:15:00 PM 33.1980 -84.0811 140° Southeast  Level FlightAware Approximate
Mon 12:15:56 PM 33.4156 -84.5317 151° Southeast 274 315 11,600  Level Atlanta Center
Mon 12:16:00 PM 33.1042 -84.0000 180° South  Level FlightAware Approximate
Mon 12:16:56 PM 33.3364 -84.4814 152° Southeast 298 343 13,600  Level Atlanta Center
Mon 12:17:00 PM 33.0164 -83.9106 145° Southeast  Level FlightAware Approximate
Mon 12:17:56 PM 33.2867 -84.3744 119° Southeast 336 387 14,800  Level Atlanta Center
Mon 12:18:56 PM 33.2264 -84.2500 120° Southeast 417 480 16,500 1,750 Climbing Atlanta Center
Mon 12:19:56 PM 33.1597 -84.1256 123° Southeast 440 506 18,300 1,900 Climbing Atlanta Center
Mon 12:20:56 PM 33.0908 -83.9967 123° Southeast 455 524 20,300 1,850 Climbing Atlanta Center
Mon 12:21:56 PM 32.9947 -83.9000 140° Southeast 446 513 22,000 1,700 Climbing Atlanta Center
Mon 12:22:56 PM 32.8861 -83.8089 145° Southeast 461 531 23,700 1,950 Climbing Atlanta Center
Mon 12:23:56 PM 32.7814 -83.7225 145° Southeast 466 536 25,900 1,900 Climbing Atlanta Center
Mon 12:24:56 PM 32.6769 -83.6342 145° Southeast 466 536 27,500 612 Climbing Atlanta Center
Mon 12:27:22 PM 32.4369 -83.3922 140° Southeast 470 541 28,000 146 Climbing Jacksonville Center
Mon 12:28:22 PM 32.3392 -83.2933 139° Southeast 470 541 28,000  Level Jacksonville Center
Mon 12:29:22 PM 32.2392 -83.1947 140° Southeast 470 541 28,000  Level Jacksonville Center
Mon 12:30:22 PM 32.1414 -83.0986 140° Southeast 465 535 28,000  Level Jacksonville Center
Mon 12:31:22 PM 32.0433 -83.0028 140° Southeast 465 535 28,000  Level Jacksonville Center
Mon 12:32:22 PM 31.9453 -82.9072 140° Southeast 465 535 28,000  Level Jacksonville Center
Mon 12:33:22 PM 31.8469 -82.8094 140° Southeast 465 535 28,000  Level Jacksonville Center
Mon 12:34:22 PM 31.7489 -82.7117 140° Southeast 465 535 28,000  Level Jacksonville Center
Mon 12:35:22 PM 31.6483 -82.6192 142° Southeast 465 535 28,000  Level Jacksonville Center
Mon 12:36:22 PM 31.5500 -82.5244 141° Southeast 465 535 28,000  Level Jacksonville Center
Mon 12:37:22 PM 31.4475 -82.4347 143° Southeast 465 535 28,000  Level Jacksonville Center
Mon 12:38:22 PM 31.3303 -82.3406 146° Southeast 465 535 28,000  Level Jacksonville Center
Mon 12:39:22 PM 31.2294 -82.2511 143° Southeast 460 529 28,000  Level Jacksonville Center
Mon 12:40:22 PM 31.1247 -82.1622 144° Southeast 460 529 28,000  Level Jacksonville Center
Mon 12:41:22 PM 31.0239 -82.0781 144° Southeast 460 529 28,000 -250 Level Jacksonville Center
Mon 12:42:22 PM 30.9189 -81.9917 145° Southeast 460 529 27,500 -1,500 Descending Jacksonville Center
Mon 12:43:22 PM 30.8181 -81.9106 145° Southeast 455 524 25,000 -1,750 Descending Jacksonville Center
Mon 12:44:22 PM 30.7194 -81.8269 144° Southeast 455 524 24,000 -550 Descending Jacksonville Center
Mon 12:45:22 PM 30.6183 -81.7436 145° Southeast 450 518 23,900 -1,150 Descending Jacksonville Center
Mon 12:46:22 PM 30.5236 -81.6628 144° Southeast 445 512 21,700 -2,000 Descending Jacksonville Center
Mon 12:47:22 PM 30.4269 -81.5819 144° Southeast 434 499 19,900 -850 Descending Jacksonville Center
Mon 12:48:22 PM 30.3322 -81.5111 147° Southeast 422 486 20,000 50 Climbing Jacksonville Center
Mon 12:49:22 PM 30.2397 -81.4667 157° South 411 473 20,000 -750 Level Jacksonville Center
Mon 12:50:22 PM 30.1350 -81.4275 162° South 401 461 18,500 -1,600 Descending Jacksonville Center
Mon 12:51:22 PM 30.0322 -81.3906 163° South 396 456 16,800 -1,250 Descending Jacksonville Center
Mon 12:52:22 PM 29.9294 -81.3539 163° South 390 449 16,000 -567 Descending Jacksonville Center
Mon 12:53:29 PM 29.8078 -81.3056 161° South 383 441 15,600 -984 Descending Jacksonville Center
Mon 12:54:30 PM 29.7092 -81.2689 162° South 371 427 13,900 -2,016 Descending Jacksonville Center
Mon 12:55:31 PM 29.6064 -81.2325 163° South 362 417 11,500 -1,982 Descending Jacksonville Center
Mon 12:56:22 PM 29.5414 -81.2072 161° South 369 425 10,200 -1,343 Descending Jacksonville Center
Mon 12:56:38 PM 29.5119 -81.1958 161° South 336 387 10,000 -600 Descending Jacksonville Center
Mon 12:57:22 PM 29.4614 -81.1658 153° Southeast 340 391 9,600 -885 Descending Jacksonville Center
Mon 12:57:39 PM 29.4344 -81.1661 181° South 277 319 9,100 -1,400 Descending Jacksonville Center
Mon 12:58:22 PM 29.3861 -81.1433 158° South 308 354 8,200 -1,398 Descending Jacksonville Center
Mon 12:59:22 PM 29.3147 -81.1206 164° South 287 330 6,700 -1,550 Descending Jacksonville Center
Mon 01:00:22 PM 29.2458 -81.1100 172° South 264 304 5,100 -1,650 Descending Jacksonville Center
Mon 01:01:22 PM 29.2133 -81.1867 244° Southwest 214 246 3,400 -1,100 Descending Jacksonville Center
Mon 01:02:22 PM 29.1914 -81.2608 251° West 222 255 2,900 -831 Descending Jacksonville Center
Mon 01:03:32 PM 29.1411 -81.2544 174° South 204 235 1,600 -1,114 Descending Jacksonville Center

Login

Don't have an account? Register now (free) for customized features, flight alerts, and more!